createdAt,value
2022-09-28T00:01:59.664Z,99579.41
2022-09-28T00:04:28.328Z,99581.94
2022-09-28T00:06:56.916Z,99585.70
2022-09-28T00:09:26.522Z,99589.80
2022-09-28T00:11:56.642Z,99592.02
2022-09-28T00:14:26.662Z,99590.70
2022-09-28T00:16:55.245Z,99586.74
2022-09-28T00:19:24.034Z,99592.11
2022-09-28T00:21:52.924Z,99589.20
2022-09-28T00:24:26.683Z,99588.27
2022-09-28T00:26:58.141Z,99589.05
2022-09-28T00:29:29.702Z,99583.69
2022-09-28T00:32:04.099Z,99583.40
2022-09-28T00:34:35.029Z,99581.64
2022-09-28T00:37:05.678Z,99577.93
2022-09-28T00:39:36.236Z,99575.95
2022-09-28T00:42:12.534Z,99577.27
2022-09-28T00:44:48.743Z,99576.95
2022-09-28T00:47:20.753Z,99578.45
2022-09-28T00:50:23.844Z,99577.76
2022-09-28T00:53:08.606Z,99581.10
2022-09-28T00:55:48.867Z,99579.12
2022-09-28T00:58:43.362Z,99582.27
2022-09-28T01:01:12.916Z,99583.60
2022-09-28T01:03:45.747Z,99587.27
2022-09-28T01:06:27.975Z,99591.10
2022-09-28T01:09:02.735Z,99587.92
2022-09-28T01:11:33.924Z,99586.89
2022-09-28T01:14:06.504Z,99588.29
2022-09-28T01:16:41.332Z,99586.39
2022-09-28T01:20:27.640Z,99581.96
2022-09-28T01:23:17.935Z,99573.39
2022-09-28T01:26:11.218Z,99575.86
2022-09-28T01:28:44.183Z,99570.67
2022-09-28T01:31:15.316Z,99564.30
2022-09-28T01:33:58.048Z,99569.58
2022-09-28T01:36:37.035Z,99575.92
2022-09-28T01:39:14.152Z,99580.20
2022-09-28T01:41:46.671Z,99574.27
2022-09-28T01:44:18.963Z,99574.61
2022-09-28T01:46:50.266Z,99578.23
2022-09-28T01:49:24.577Z,99567.79
2022-09-28T01:52:09.544Z,99558.54
2022-09-28T01:54:46.726Z,99550.86
2022-09-28T01:57:27.316Z,99549.44
2022-09-28T02:00:04.657Z,99547.70
2022-09-28T02:03:22.010Z,99548.63
2022-09-28T02:06:02.135Z,99549.54
2022-09-28T02:08:40.889Z,99549.70
2022-09-28T02:11:20.126Z,99545.43
2022-09-28T02:14:10.315Z,99553.55
2022-09-28T02:16:44.487Z,99557.19
2022-09-28T02:19:20.141Z,99559.08
2022-09-28T02:21:59.003Z,99563.95
2022-09-28T02:24:35.831Z,99567.83
2022-09-28T02:27:15.118Z,99573.10
2022-09-28T02:29:44.005Z,99576.81
2022-09-28T02:32:13.306Z,99579.84
2022-09-28T02:34:42.093Z,99574.41
2022-09-28T02:37:10.879Z,99570.91
2022-09-28T02:39:39.982Z,99579.46
2022-09-28T02:42:15.327Z,99581.38
2022-09-28T02:44:47.284Z,99582.11
2022-09-28T02:47:39.522Z,99583.88
2022-09-28T02:50:11.385Z,99584.18
2022-09-28T02:52:49.798Z,99580.40
2022-09-28T02:56:13.787Z,99580.98
2022-09-28T02:59:02.542Z,99589.27
2022-09-28T03:01:34.248Z,99586.79
2022-09-28T03:04:12.099Z,99582.52
2022-09-28T03:06:43.009Z,99584.71
2022-09-28T03:09:29.129Z,99584.25
2022-09-28T03:12:01.784Z,99584.91
2022-09-28T03:14:31.011Z,99587.52
2022-09-28T03:17:00.007Z,99593.06
2022-09-28T03:19:32.886Z,99602.66
2022-09-28T03:22:02.237Z,99606.89
2022-09-28T03:24:30.980Z,99613.59
2022-09-28T03:26:59.668Z,99615.06
2022-09-28T03:29:31.646Z,99614.11
2022-09-28T03:32:02.574Z,99618.23
2022-09-28T03:34:31.053Z,99617.67
2022-09-28T03:37:00.044Z,99613.05
2022-09-28T03:39:28.733Z,99609.29
2022-09-28T03:41:57.571Z,99611.37
2022-09-28T03:44:26.206Z,99612.75
2022-09-28T03:46:54.891Z,99614.23
2022-09-28T03:49:23.477Z,99616.84
2022-09-28T03:51:52.365Z,99616.29
2022-09-28T03:54:26.481Z,99620.32
2022-09-28T03:56:55.481Z,99628.16
2022-09-28T03:59:24.363Z,99630.84
2022-09-28T04:01:53.477Z,99639.30
2022-09-28T04:04:22.663Z,99643.73
2022-09-28T04:06:51.279Z,99646.88
2022-09-28T04:09:19.930Z,99646.98
2022-09-28T04:12:03.487Z,99645.48
2022-09-28T04:14:34.729Z,99644.81
2022-09-28T04:17:03.297Z,99640.84
2022-09-28T04:19:33.929Z,99642.30
2022-09-28T04:22:18.386Z,99647.95
2022-09-28T04:24:47.071Z,99651.67
2022-09-28T04:27:34.089Z,99646.48
2022-09-28T04:30:04.637Z,99648.47
2022-09-28T04:32:35.152Z,99652.06
2022-09-28T04:35:04.347Z,99654.29
2022-09-28T04:37:34.168Z,99653.21
2022-09-28T04:40:04.490Z,99656.35
2022-09-28T04:42:34.051Z,99651.95
2022-09-28T04:45:05.098Z,99645.95
2022-09-28T04:47:37.199Z,99643.45
2022-09-28T04:50:31.794Z,99644.44
2022-09-28T04:53:21.166Z,99644.91
2022-09-28T04:56:06.791Z,99645.20
2022-09-28T04:58:36.212Z,99644.27
2022-09-28T05:01:07.549Z,99649.20
2022-09-28T05:03:54.515Z,99647.46
2022-09-28T05:06:33.750Z,99658.05
2022-09-28T05:09:09.941Z,99668.86
2022-09-28T05:11:38.700Z,99673.53
2022-09-28T05:14:13.590Z,99671.48
2022-09-28T05:16:42.794Z,99674.77
2022-09-28T05:19:23.707Z,99673.27
2022-09-28T05:21:53.324Z,99674.98
2022-09-28T05:24:21.900Z,99670.44
2022-09-28T05:26:54.269Z,99662.64
2022-09-28T05:29:23.063Z,99663.04
2022-09-28T05:32:30.046Z,99668.29
2022-09-28T05:35:13.510Z,99675.44
2022-09-28T05:37:47.693Z,99682.39
2022-09-28T05:40:16.850Z,99687.69
2022-09-28T05:42:45.696Z,99685.05
2022-09-28T05:45:15.289Z,99681.56
2022-09-28T05:47:46.521Z,99682.61
2022-09-28T05:50:18.909Z,99680.83
2022-09-28T05:52:48.120Z,99678.42
2022-09-28T05:55:16.690Z,99675.23
2022-09-28T05:57:45.381Z,99678.90
2022-09-28T06:00:14.577Z,99680.94
2022-09-28T06:02:43.710Z,99686.20
2022-09-28T06:05:14.917Z,99691.16
2022-09-28T06:07:43.402Z,99691.77
2022-09-28T06:10:11.983Z,99692.57
2022-09-28T06:12:45.995Z,99697.12
2022-09-28T06:15:17.767Z,99693.95
2022-09-28T06:17:48.187Z,99697.34
2022-09-28T06:20:49.127Z,99696.95
2022-09-28T06:23:19.659Z,99699.37
2022-09-28T06:25:48.340Z,99700.85
2022-09-28T06:28:17.947Z,99706.42
2022-09-28T06:30:48.825Z,99711.79
2022-09-28T06:33:20.037Z,99714.05
2022-09-28T06:35:48.833Z,99717.15
2022-09-28T06:38:19.966Z,99715.55
2022-09-28T06:40:50.265Z,99718.42
2022-09-28T06:43:19.284Z,99723.93
2022-09-28T06:46:10.092Z,99723.98
2022-09-28T06:48:57.207Z,99726.64
2022-09-28T06:51:46.786Z,99727.66
2022-09-28T06:54:37.486Z,99727.54
2022-09-28T06:57:28.701Z,99731.38
2022-09-28T06:59:57.800Z,99733.68
2022-09-28T07:02:26.551Z,99732.22
2022-09-28T07:05:04.391Z,99728.04
2022-09-28T07:07:49.934Z,99729.64
2022-09-28T07:10:28.572Z,99735.23
2022-09-28T07:13:47.178Z,99737.08
2022-09-28T07:16:09.939Z,99730.27
2022-09-28T07:18:38.627Z,99730.77
2022-09-28T07:21:13.123Z,99730.23
2022-09-28T07:23:52.400Z,99736.20
2022-09-28T07:26:26.331Z,99741.39
2022-09-28T07:29:17.460Z,99746.48
2022-09-28T07:31:58.443Z,99745.27
2022-09-28T07:34:45.555Z,99744.69
2022-09-28T07:37:20.598Z,99748.37
2022-09-28T07:40:09.031Z,99750.31
2022-09-28T07:42:39.470Z,99747.12
2022-09-28T07:45:08.977Z,99746.64
2022-09-28T07:47:38.469Z,99746.91
2022-09-28T07:50:14.231Z,99749.95
2022-09-28T07:53:06.162Z,99749.70
2022-09-28T07:56:07.321Z,99751.81
2022-09-28T07:58:44.086Z,99752.00
2022-09-28T08:01:39.092Z,99750.33
2022-09-28T08:04:09.722Z,99747.91
2022-09-28T08:06:40.967Z,99744.53
2022-09-28T08:09:11.599Z,99753.27
2022-09-28T08:11:59.918Z,99755.60
2022-09-28T08:14:37.983Z,99754.13
2022-09-28T08:17:29.575Z,99757.54
2022-09-28T08:20:20.280Z,99762.23
2022-09-28T08:22:49.068Z,99757.23
2022-09-28T08:25:17.704Z,99756.45
2022-09-28T08:27:46.443Z,99755.02
2022-09-28T08:30:16.371Z,99759.34
2022-09-28T08:33:04.161Z,99758.67
2022-09-28T08:35:47.111Z,99766.41
2022-09-28T08:38:19.893Z,99768.38
2022-09-28T08:41:28.202Z,99766.93
2022-09-28T08:44:25.758Z,99766.48
2022-09-28T08:47:45.014Z,99767.97
2022-09-28T08:50:31.685Z,99765.46
2022-09-28T08:53:28.501Z,99762.12
2022-09-28T08:56:26.885Z,99752.25
2022-09-28T08:59:02.352Z,99746.94
2022-09-28T09:01:39.681Z,99747.58
2022-09-28T09:04:13.026Z,99740.28
2022-09-28T09:07:40.488Z,99737.05
2022-09-28T09:10:30.777Z,99732.92
2022-09-28T09:13:37.962Z,99731.63
2022-09-28T09:16:25.107Z,99732.85
2022-09-28T09:19:35.962Z,99732.83
2022-09-28T09:22:18.163Z,99736.58
2022-09-28T09:25:28.843Z,99738.34
2022-09-28T09:28:02.611Z,99741.70
2022-09-28T09:30:57.535Z,99737.95
2022-09-28T09:33:44.555Z,99737.72
2022-09-28T09:37:17.964Z,99738.55
2022-09-28T09:40:30.834Z,99740.52
2022-09-28T09:44:03.820Z,99739.25
2022-09-28T09:47:02.565Z,99744.13
2022-09-28T09:50:16.538Z,99744.02
2022-09-28T09:52:58.620Z,99746.55
2022-09-28T09:55:40.584Z,99745.98
2022-09-28T09:58:39.920Z,99746.86
2022-09-28T10:01:43.732Z,99744.07
2022-09-28T10:04:24.400Z,99734.93
2022-09-28T10:06:59.473Z,99731.45
2022-09-28T10:09:35.542Z,99729.12
2022-09-28T10:12:22.266Z,99725.55
2022-09-28T10:14:51.194Z,99726.38
2022-09-28T10:17:27.051Z,99731.13
2022-09-28T10:20:16.500Z,99732.92
2022-09-28T10:23:02.317Z,99733.50
2022-09-28T10:25:35.095Z,99734.48
2022-09-28T10:28:06.547Z,99734.67
2022-09-28T10:30:44.637Z,99742.73
2022-09-28T10:33:34.362Z,99741.36
2022-09-28T10:36:07.532Z,99737.73
2022-09-28T10:38:36.314Z,99732.96
2022-09-28T10:41:17.456Z,99734.55
2022-09-28T10:44:07.016Z,99736.61
2022-09-28T10:47:04.818Z,99736.09
2022-09-28T10:49:46.814Z,99736.92
2022-09-28T10:52:45.532Z,99738.40
2022-09-28T10:55:33.794Z,99734.61
2022-09-28T10:58:24.575Z,99728.48
2022-09-28T11:01:00.229Z,99727.73
2022-09-28T11:03:31.453Z,99733.30
2022-09-28T11:06:08.120Z,99732.60
2022-09-28T11:08:42.212Z,99734.58
2022-09-28T11:11:16.206Z,99733.84
2022-09-28T11:13:53.004Z,99731.48
2022-09-28T11:16:33.441Z,99728.23
2022-09-28T11:19:30.151Z,99723.27
2022-09-28T11:21:59.350Z,99723.88
2022-09-28T11:24:36.536Z,99720.65
2022-09-28T11:27:05.531Z,99723.36
2022-09-28T11:29:59.516Z,99725.16
2022-09-28T11:32:44.939Z,99725.18
2022-09-28T11:35:37.922Z,99727.92
2022-09-28T11:38:26.025Z,99725.38
2022-09-28T11:41:43.520Z,99722.86
2022-09-28T11:44:47.735Z,99722.73
2022-09-28T11:47:47.657Z,99717.27
2022-09-28T11:50:26.081Z,99715.32
2022-09-28T11:53:39.669Z,99715.59
2022-09-28T11:56:36.467Z,99715.60
2022-09-28T11:59:11.106Z,99717.45
2022-09-28T12:02:17.136Z,99723.35
2022-09-28T12:04:57.176Z,99723.83
2022-09-28T12:07:33.365Z,99721.23
2022-09-28T12:10:09.778Z,99723.20
2022-09-28T12:12:48.001Z,99723.31
2022-09-28T12:16:07.435Z,99726.50
2022-09-28T12:18:50.640Z,99729.42
2022-09-28T12:21:28.145Z,99730.00
2022-09-28T12:24:22.423Z,99735.17
2022-09-28T12:27:03.706Z,99738.86
2022-09-28T12:29:43.971Z,99742.19
2022-09-28T12:32:15.725Z,99745.80
2022-09-28T12:34:45.039Z,99742.12
2022-09-28T12:37:32.243Z,99740.73
2022-09-28T12:40:27.206Z,99747.32
2022-09-28T12:43:07.803Z,99750.06
2022-09-28T12:45:59.766Z,99751.03
2022-09-28T12:49:33.161Z,99754.20
2022-09-28T12:51:54.973Z,99755.48
2022-09-28T12:54:48.648Z,99760.54
2022-09-28T12:57:36.486Z,99766.29
2022-09-28T13:00:23.175Z,99767.80
2022-09-28T13:03:31.960Z,99765.69
2022-09-28T13:06:15.553Z,99766.90
2022-09-28T13:09:14.960Z,99765.65
2022-09-28T13:12:16.133Z,99768.77
2022-09-28T13:15:09.785Z,99768.09
2022-09-28T13:18:02.006Z,99770.74
2022-09-28T13:21:03.385Z,99771.05
2022-09-28T13:23:44.673Z,99772.82
2022-09-28T13:26:30.851Z,99774.81
2022-09-28T13:29:11.564Z,99775.41
2022-09-28T13:31:55.153Z,99770.83
2022-09-28T13:34:32.972Z,99773.13
2022-09-28T13:37:24.683Z,99771.96
2022-09-28T13:39:58.505Z,99770.08
2022-09-28T13:42:29.944Z,99771.05
2022-09-28T13:45:01.708Z,99770.02
2022-09-28T13:47:42.466Z,99767.80
2022-09-28T13:50:27.849Z,99767.69
2022-09-28T13:53:33.844Z,99768.21
2022-09-28T13:56:24.778Z,99765.42
2022-09-28T13:59:11.322Z,99765.89
2022-09-28T14:01:44.183Z,99770.99
2022-09-28T14:04:22.288Z,99772.34
2022-09-28T14:07:11.402Z,99774.38
2022-09-28T14:10:18.470Z,99772.73
2022-09-28T14:12:52.147Z,99772.77
2022-09-28T14:15:29.990Z,99768.04
2022-09-28T14:18:10.842Z,99766.33
2022-09-28T14:20:51.211Z,99766.43
2022-09-28T14:23:25.554Z,99767.58
2022-09-28T14:26:12.538Z,99770.11
2022-09-28T14:29:14.327Z,99771.75
2022-09-28T14:31:44.221Z,99772.34
2022-09-28T14:34:36.065Z,99772.14
2022-09-28T14:37:37.604Z,99774.08
2022-09-28T14:40:55.345Z,99774.09
2022-09-28T14:43:58.234Z,99777.69
2022-09-28T14:46:33.836Z,99777.94
2022-09-28T14:49:13.014Z,99782.22
2022-09-28T14:51:41.699Z,99785.24
2022-09-28T14:54:12.944Z,99789.45
2022-09-28T14:56:53.922Z,99793.84
2022-09-28T14:59:36.390Z,99794.57
2022-09-28T15:02:10.855Z,99791.95
2022-09-28T15:05:09.132Z,99793.18
2022-09-28T15:07:48.419Z,99796.52
2022-09-28T15:10:33.687Z,99801.83
2022-09-28T15:13:05.994Z,99801.19
2022-09-28T15:15:41.049Z,99799.57
2022-09-28T15:18:09.631Z,99804.36
2022-09-28T15:20:42.055Z,99807.58
2022-09-28T15:23:44.329Z,99809.76
2022-09-28T15:26:48.498Z,99816.63
2022-09-28T15:29:18.412Z,99822.23
2022-09-28T15:31:50.004Z,99826.75
2022-09-28T15:34:51.322Z,99829.87
2022-09-28T15:37:27.059Z,99834.37
2022-09-28T15:39:58.011Z,99835.98
2022-09-28T15:42:27.306Z,99838.33
2022-09-28T15:45:01.937Z,99843.05
2022-09-28T15:47:33.193Z,99848.95
2022-09-28T15:50:05.381Z,99850.83
2022-09-28T15:52:37.114Z,99856.59
2022-09-28T15:55:36.412Z,99862.89
2022-09-28T15:58:23.008Z,99864.61
2022-09-28T16:01:36.846Z,99864.36
2022-09-28T16:04:48.202Z,99872.12
2022-09-28T16:07:16.734Z,99877.71
2022-09-28T16:10:25.439Z,99877.98
2022-09-28T16:12:59.130Z,99884.09
2022-09-28T16:15:32.364Z,99890.91
2022-09-28T16:18:22.444Z,99896.14
2022-09-28T16:20:54.115Z,99893.58
2022-09-28T16:23:34.410Z,99892.08
2022-09-28T16:26:08.995Z,99895.69
2022-09-28T16:28:41.069Z,99902.15
2022-09-28T16:31:12.776Z,99904.39
2022-09-28T16:33:47.023Z,99907.46
2022-09-28T16:36:17.535Z,99909.48
2022-09-28T16:38:47.264Z,99909.65
2022-09-28T16:41:20.888Z,99913.26
2022-09-28T16:43:55.051Z,99916.16
2022-09-28T16:46:36.846Z,99918.70
2022-09-28T16:49:13.348Z,99923.39
2022-09-28T16:51:41.931Z,99929.26
2022-09-28T16:54:32.324Z,99928.46
2022-09-28T16:57:02.444Z,99928.55
2022-09-28T16:59:31.554Z,99931.64
2022-09-28T17:02:00.556Z,99938.99
2022-09-28T17:04:29.222Z,99940.30
2022-09-28T17:06:58.626Z,99946.36
2022-09-28T17:09:27.121Z,99944.30
2022-09-28T17:11:57.330Z,99946.49
2022-09-28T17:14:26.057Z,99951.90
2022-09-28T17:17:08.082Z,99953.83
2022-09-28T17:19:38.145Z,99958.89
2022-09-28T17:22:08.567Z,99966.25
2022-09-28T17:24:37.974Z,99966.35
2022-09-28T17:27:07.371Z,99970.34
2022-09-28T17:29:36.056Z,99975.75
2022-09-28T17:32:15.292Z,99978.63
2022-09-28T17:34:51.506Z,99982.29
2022-09-28T17:37:24.545Z,99988.39
2022-09-28T17:39:53.229Z,99991.06
2022-09-28T17:42:21.847Z,99993.38
2022-09-28T17:44:50.394Z,99992.92
2022-09-28T17:47:19.083Z,99993.39
2022-09-28T17:49:47.770Z,99997.98
2022-09-28T17:52:16.359Z,100002.75
2022-09-28T17:54:44.936Z,100000.86
2022-09-28T17:57:13.931Z,100003.88
2022-09-28T17:59:42.517Z,100002.80
2022-09-28T18:02:12.121Z,100005.08
2022-09-28T18:04:51.745Z,100005.46
2022-09-28T18:07:21.582Z,100007.08
2022-09-28T18:09:57.046Z,100009.88
2022-09-28T18:12:25.715Z,100007.84
2022-09-28T18:14:54.311Z,100008.61
2022-09-28T18:17:23.083Z,100009.96
2022-09-28T18:19:51.872Z,100010.88
2022-09-28T18:22:20.570Z,100011.84
2022-09-28T18:24:49.451Z,100012.19
2022-09-28T18:27:18.137Z,100012.25
2022-09-28T18:29:46.726Z,100014.86
2022-09-28T18:32:15.442Z,100013.63
2022-09-28T18:34:43.981Z,100016.85
2022-09-28T18:37:12.536Z,100022.77
2022-09-28T18:39:41.080Z,100024.30
2022-09-28T18:42:10.691Z,100025.78
2022-09-28T18:44:39.354Z,100025.88
2022-09-28T18:47:07.799Z,100019.67
2022-09-28T18:49:36.467Z,100021.91
2022-09-28T18:52:05.498Z,100020.41
2022-09-28T18:54:34.102Z,100016.69
2022-09-28T18:57:02.703Z,100018.23
2022-09-28T18:59:31.519Z,100017.69
2022-09-28T19:02:02.047Z,100016.61
2022-09-28T19:04:31.375Z,100018.86
2022-09-28T19:07:00.144Z,100021.30
2022-09-28T19:09:28.880Z,100024.79
2022-09-28T19:11:57.567Z,100024.02
2022-09-28T19:14:26.656Z,100024.20
2022-09-28T19:16:55.451Z,100028.27
2022-09-28T19:19:23.929Z,100030.30
2022-09-28T19:21:52.451Z,100030.55
2022-09-28T19:24:21.520Z,100028.14
2022-09-28T19:26:50.230Z,100028.75
2022-09-28T19:29:18.863Z,100033.89
2022-09-28T19:31:47.804Z,100036.71
2022-09-28T19:34:16.469Z,100034.45
2022-09-28T19:36:45.767Z,100032.19
2022-09-28T19:39:15.785Z,100032.16
2022-09-28T19:41:51.600Z,100034.12
2022-09-28T19:44:25.926Z,100032.04
2022-09-28T19:47:07.680Z,100031.53
2022-09-28T19:49:40.274Z,100032.69
2022-09-28T19:52:16.375Z,100035.21
2022-09-28T19:54:56.049Z,100036.61
2022-09-28T19:57:35.172Z,100040.04
2022-09-28T20:00:04.566Z,100038.05
2022-09-28T20:02:37.925Z,100036.70
2022-09-28T20:05:08.533Z,100040.52
2022-09-28T20:07:37.180Z,100043.79
2022-09-28T20:10:06.581Z,100046.41
2022-09-28T20:12:35.072Z,100047.02
2022-09-28T20:15:05.447Z,100047.19
2022-09-28T20:17:36.275Z,100045.80
2022-09-28T20:20:05.349Z,100049.86
2022-09-28T20:22:34.006Z,100050.73
2022-09-28T20:25:03.514Z,100049.52
2022-09-28T20:27:33.326Z,100049.17
2022-09-28T20:30:02.320Z,100047.64
2022-09-28T20:32:35.718Z,100045.68
2022-09-28T20:35:05.119Z,100042.56
2022-09-28T20:37:34.524Z,100040.98
2022-09-28T20:40:03.006Z,100036.29
2022-09-28T20:42:32.307Z,100041.80
2022-09-28T20:45:01.095Z,100045.33
2022-09-28T20:47:29.780Z,100048.63
2022-09-28T20:49:58.675Z,100045.02
2022-09-28T20:52:27.377Z,100046.17
2022-09-28T20:54:56.296Z,100048.02
2022-09-28T20:57:25.041Z,100052.95
2022-09-28T20:59:54.860Z,100053.45
2022-09-28T21:02:24.021Z,100057.99
2022-09-28T21:04:52.735Z,100061.88
2022-09-28T21:07:21.424Z,100068.68
2022-09-28T21:09:50.847Z,100074.91
2022-09-28T21:12:19.722Z,100081.16
2022-09-28T21:14:48.199Z,100088.83
2022-09-28T21:17:16.682Z,100091.00
2022-09-28T21:19:45.581Z,100093.76
2022-09-28T21:22:14.361Z,100095.85
2022-09-28T21:24:42.947Z,100094.20
2022-09-28T21:27:11.430Z,100091.52
2022-09-28T21:29:39.909Z,100092.10
2022-09-28T21:32:08.801Z,100093.62
2022-09-28T21:34:37.385Z,100093.56
2022-09-28T21:37:06.174Z,100092.53
2022-09-28T21:39:34.759Z,100095.03
2022-09-28T21:42:03.580Z,100100.29
2022-09-28T21:44:32.134Z,100110.31
2022-09-28T21:47:00.717Z,100110.58
2022-09-28T21:49:29.709Z,100106.16
2022-09-28T21:51:58.293Z,100111.80
2022-09-28T21:54:28.311Z,100118.16
2022-09-28T21:56:56.999Z,100122.04
2022-09-28T21:59:26.197Z,100123.58
2022-09-28T22:01:54.934Z,100118.09
2022-09-28T22:04:23.585Z,100117.73
2022-09-28T22:06:52.156Z,100121.30
2022-09-28T22:09:20.736Z,100122.75
2022-09-28T22:11:49.744Z,100128.14
2022-09-28T22:14:18.764Z,100131.75
2022-09-28T22:16:47.736Z,100131.98
2022-09-28T22:19:16.214Z,100130.39
2022-09-28T22:21:45.502Z,100125.73
2022-09-28T22:24:14.329Z,100125.22
2022-09-28T22:26:42.878Z,100128.53
2022-09-28T22:29:11.671Z,100132.58
2022-09-28T22:31:41.814Z,100138.20
2022-09-28T22:34:10.581Z,100142.62
2022-09-28T22:36:39.366Z,100138.73
2022-09-28T22:39:08.406Z,100136.05
2022-09-28T22:41:37.044Z,100132.25
2022-09-28T22:44:05.942Z,100132.17
2022-09-28T22:46:34.777Z,100136.26
2022-09-28T22:49:03.521Z,100141.40
2022-09-28T22:51:32.105Z,100144.15
2022-09-28T22:54:01.532Z,100147.23
2022-09-28T22:56:30.457Z,100151.33
2022-09-28T22:58:59.641Z,100141.59
2022-09-28T23:01:30.572Z,100138.33
2022-09-28T23:03:59.833Z,100141.05
2022-09-28T23:06:31.031Z,100148.27
2022-09-28T23:08:59.866Z,100159.48
2022-09-28T23:11:29.986Z,100165.81
2022-09-28T23:14:00.001Z,100175.71
2022-09-28T23:16:28.740Z,100183.29
2022-09-28T23:18:58.091Z,100177.50
2022-09-28T23:21:28.897Z,100176.50
2022-09-28T23:24:01.764Z,100186.09
2022-09-28T23:26:32.858Z,100196.88
2022-09-28T23:29:01.754Z,100205.38
2022-09-28T23:31:32.854Z,100202.05
2022-09-28T23:34:04.949Z,100199.11
2022-09-28T23:36:34.673Z,100196.33
2022-09-28T23:39:03.559Z,100197.50
2022-09-28T23:41:32.452Z,100196.77
2022-09-28T23:44:01.341Z,100194.13
2022-09-28T23:46:30.226Z,100191.32
2022-09-28T23:48:58.919Z,100191.85
2022-09-28T23:51:27.503Z,100185.16
2022-09-28T23:53:56.191Z,100187.11
2022-09-28T23:56:24.878Z,100188.16
2022-09-28T23:58:53.463Z,100183.22
